sensor_id;sensor_type;location;lat;lon;timestamp;P1;durP1;ratioP1;P2;durP2;ratioP2
6251;SDS011;3159;52.414;9.784;2022-10-20T00:00:18;7.67;;;3.17;;
6251;SDS011;3159;52.414;9.784;2022-10-20T00:02:45;4.77;;;3.10;;
6251;SDS011;3159;52.414;9.784;2022-10-20T00:05:12;6.97;;;3.50;;
6251;SDS011;3159;52.414;9.784;2022-10-20T00:07:41;6.23;;;3.70;;
6251;SDS011;3159;52.414;9.784;2022-10-20T00:10:08;5.63;;;3.17;;
6251;SDS011;3159;52.414;9.784;2022-10-20T00:12:35;6.23;;;3.27;;
6251;SDS011;3159;52.414;9.784;2022-10-20T00:15:02;5.43;;;3.27;;
6251;SDS011;3159;52.414;9.784;2022-10-20T00:17:30;5.97;;;3.17;;
6251;SDS011;3159;52.414;9.784;2022-10-20T00:19:56;5.03;;;3.43;;
6251;SDS011;3159;52.414;9.784;2022-10-20T00:22:23;6.23;;;3.20;;
6251;SDS011;3159;52.414;9.784;2022-10-20T00:24:53;4.97;;;3.23;;
6251;SDS011;3159;52.414;9.784;2022-10-20T00:27:20;4.03;;;2.90;;
6251;SDS011;3159;52.414;9.784;2022-10-20T00:29:47;6.90;;;3.10;;
6251;SDS011;3159;52.414;9.784;2022-10-20T00:32:14;5.73;;;3.27;;
6251;SDS011;3159;52.414;9.784;2022-10-20T00:34:41;3.67;;;2.90;;
6251;SDS011;3159;52.414;9.784;2022-10-20T00:37:08;3.37;;;3.00;;
6251;SDS011;3159;52.414;9.784;2022-10-20T00:39:34;6.73;;;2.83;;
6251;SDS011;3159;52.414;9.784;2022-10-20T00:42:03;8.60;;;3.20;;
6251;SDS011;3159;52.414;9.784;2022-10-20T00:44:53;7.33;;;3.10;;
6251;SDS011;3159;52.414;9.784;2022-10-20T00:47:24;4.77;;;3.10;;
6251;SDS011;3159;52.414;9.784;2022-10-20T00:50:02;6.27;;;3.00;;
6251;SDS011;3159;52.414;9.784;2022-10-20T00:52:33;4.07;;;3.13;;
6251;SDS011;3159;52.414;9.784;2022-10-20T00:55:01;6.53;;;3.07;;
6251;SDS011;3159;52.414;9.784;2022-10-20T00:57:30;6.30;;;2.93;;
6251;SDS011;3159;52.414;9.784;2022-10-20T00:59:57;5.77;;;2.90;;
6251;SDS011;3159;52.414;9.784;2022-10-20T01:02:24;6.53;;;3.23;;
6251;SDS011;3159;52.414;9.784;2022-10-20T01:04:51;4.90;;;3.10;;
6251;SDS011;3159;52.414;9.784;2022-10-20T01:07:18;13.70;;;3.20;;
6251;SDS011;3159;52.414;9.784;2022-10-20T01:09:45;6.83;;;3.40;;
6251;SDS011;3159;52.414;9.784;2022-10-20T01:12:18;4.57;;;3.43;;
6251;SDS011;3159;52.414;9.784;2022-10-20T01:14:54;6.03;;;2.93;;
6251;SDS011;3159;52.414;9.784;2022-10-20T01:17:30;3.70;;;3.10;;
6251;SDS011;3159;52.414;9.784;2022-10-20T01:23:16;6.17;;;3.50;;
6251;SDS011;3159;52.414;9.784;2022-10-20T01:26:10;6.77;;;3.40;;
6251;SDS011;3159;52.414;9.784;2022-10-20T01:28:52;7.57;;;4.10;;
6251;SDS011;3159;52.414;9.784;2022-10-20T01:31:25;5.43;;;3.40;;
6251;SDS011;3159;52.414;9.784;2022-10-20T01:33:57;5.57;;;4.07;;
6251;SDS011;3159;52.414;9.784;2022-10-20T01:36:35;7.13;;;3.27;;
6251;SDS011;3159;52.414;9.784;2022-10-20T01:39:05;4.77;;;3.27;;
6251;SDS011;3159;52.414;9.784;2022-10-20T01:41:37;5.33;;;3.70;;
6251;SDS011;3159;52.414;9.784;2022-10-20T01:44:09;3.63;;;3.30;;
6251;SDS011;3159;52.414;9.784;2022-10-20T01:46:39;7.10;;;3.70;;
6251;SDS011;3159;52.414;9.784;2022-10-20T01:49:08;7.03;;;3.70;;
6251;SDS011;3159;52.414;9.784;2022-10-20T01:51:36;4.50;;;3.27;;
6251;SDS011;3159;52.414;9.784;2022-10-20T01:54:02;6.10;;;3.37;;
6251;SDS011;3159;52.414;9.784;2022-10-20T01:56:32;4.43;;;3.33;;
6251;SDS011;3159;52.414;9.784;2022-10-20T01:59:27;6.90;;;3.13;;
6251;SDS011;3159;52.414;9.784;2022-10-20T02:05:08;5.00;;;3.27;;
6251;SDS011;3159;52.414;9.784;2022-10-20T02:07:43;5.40;;;3.23;;
6251;SDS011;3159;52.414;9.784;2022-10-20T02:10:11;4.67;;;3.40;;
6251;SDS011;3159;52.414;9.784;2022-10-20T02:12:44;6.00;;;3.53;;
6251;SDS011;3159;52.414;9.784;2022-10-20T02:15:16;3.73;;;3.23;;
6251;SDS011;3159;52.414;9.784;2022-10-20T02:17:50;7.57;;;3.50;;
6251;SDS011;3159;52.414;9.784;2022-10-20T02:20:20;7.20;;;3.23;;
6251;SDS011;3159;52.414;9.784;2022-10-20T02:22:47;6.73;;;3.93;;
6251;SDS011;3159;52.414;9.784;2022-10-20T02:25:14;5.47;;;3.50;;
6251;SDS011;3159;52.414;9.784;2022-10-20T02:27:42;3.37;;;3.00;;
6251;SDS011;3159;52.414;9.784;2022-10-20T02:30:13;5.40;;;3.97;;
6251;SDS011;3159;52.414;9.784;2022-10-20T02:32:43;5.17;;;3.20;;
6251;SDS011;3159;52.414;9.784;2022-10-20T02:35:16;3.43;;;3.13;;
6251;SDS011;3159;52.414;9.784;2022-10-20T02:37:45;6.83;;;3.53;;
6251;SDS011;3159;52.414;9.784;2022-10-20T02:40:12;3.53;;;2.87;;
6251;SDS011;3159;52.414;9.784;2022-10-20T02:42:39;4.93;;;3.10;;
6251;SDS011;3159;52.414;9.784;2022-10-20T02:45:07;4.63;;;3.30;;
6251;SDS011;3159;52.414;9.784;2022-10-20T02:47:36;5.83;;;2.90;;
6251;SDS011;3159;52.414;9.784;2022-10-20T02:50:03;4.57;;;3.10;;
6251;SDS011;3159;52.414;9.784;2022-10-20T02:52:31;5.57;;;3.10;;
6251;SDS011;3159;52.414;9.784;2022-10-20T02:54:58;6.87;;;3.53;;
6251;SDS011;3159;52.414;9.784;2022-10-20T02:57:25;4.20;;;3.10;;
6251;SDS011;3159;52.414;9.784;2022-10-20T02:59:52;3.97;;;2.97;;
6251;SDS011;3159;52.414;9.784;2022-10-20T03:02:19;5.23;;;2.60;;
6251;SDS011;3159;52.414;9.784;2022-10-20T03:04:47;5.40;;;3.30;;
6251;SDS011;3159;52.414;9.784;2022-10-20T03:07:14;4.63;;;3.30;;
6251;SDS011;3159;52.414;9.784;2022-10-20T03:09:41;4.90;;;3.17;;
6251;SDS011;3159;52.414;9.784;2022-10-20T03:12:08;3.53;;;2.90;;
6251;SDS011;3159;52.414;9.784;2022-10-20T03:14:35;5.00;;;3.10;;
6251;SDS011;3159;52.414;9.784;2022-10-20T03:17:02;4.53;;;3.00;;
6251;SDS011;3159;52.414;9.784;2022-10-20T03:19:29;6.57;;;3.13;;
6251;SDS011;3159;52.414;9.784;2022-10-20T03:21:57;4.80;;;3.13;;
6251;SDS011;3159;52.414;9.784;2022-10-20T03:24:24;5.10;;;3.10;;
6251;SDS011;3159;52.414;9.784;2022-10-20T03:26:50;4.73;;;2.73;;
6251;SDS011;3159;52.414;9.784;2022-10-20T03:29:17;3.87;;;2.80;;
6251;SDS011;3159;52.414;9.784;2022-10-20T03:31:44;4.70;;;2.63;;
6251;SDS011;3159;52.414;9.784;2022-10-20T03:34:11;3.57;;;2.70;;
6251;SDS011;3159;52.414;9.784;2022-10-20T03:36:38;4.27;;;3.00;;
6251;SDS011;3159;52.414;9.784;2022-10-20T03:39:06;6.40;;;3.17;;
6251;SDS011;3159;52.414;9.784;2022-10-20T03:41:33;4.97;;;3.00;;
6251;SDS011;3159;52.414;9.784;2022-10-20T03:44:00;5.13;;;3.13;;
6251;SDS011;3159;52.414;9.784;2022-10-20T03:46:26;3.67;;;3.20;;
6251;SDS011;3159;52.414;9.784;2022-10-20T03:48:53;6.70;;;3.17;;
6251;SDS011;3159;52.414;9.784;2022-10-20T03:51:20;3.63;;;3.20;;
6251;SDS011;3159;52.414;9.784;2022-10-20T03:53:47;4.97;;;3.30;;
6251;SDS011;3159;52.414;9.784;2022-10-20T03:56:16;3.50;;;3.20;;
6251;SDS011;3159;52.414;9.784;2022-10-20T03:58:45;9.00;;;3.77;;
6251;SDS011;3159;52.414;9.784;2022-10-20T04:01:12;8.20;;;3.03;;
6251;SDS011;3159;52.414;9.784;2022-10-20T04:03:40;5.60;;;3.23;;
6251;SDS011;3159;52.414;9.784;2022-10-20T04:06:07;6.00;;;3.40;;
6251;SDS011;3159;52.414;9.784;2022-10-20T04:08:34;6.67;;;3.23;;
6251;SDS011;3159;52.414;9.784;2022-10-20T04:11:01;8.83;;;3.20;;
6251;SDS011;3159;52.414;9.784;2022-10-20T04:13:29;6.20;;;3.57;;
6251;SDS011;3159;52.414;9.784;2022-10-20T04:15:56;3.73;;;3.07;;
6251;SDS011;3159;52.414;9.784;2022-10-20T04:18:24;5.27;;;3.50;;
6251;SDS011;3159;52.414;9.784;2022-10-20T04:20:50;5.63;;;3.13;;
6251;SDS011;3159;52.414;9.784;2022-10-20T04:23:17;5.70;;;3.60;;
6251;SDS011;3159;52.414;9.784;2022-10-20T04:25:44;7.20;;;3.63;;
6251;SDS011;3159;52.414;9.784;2022-10-20T04:28:12;4.73;;;3.60;;
6251;SDS011;3159;52.414;9.784;2022-10-20T04:30:41;3.77;;;3.20;;
6251;SDS011;3159;52.414;9.784;2022-10-20T04:33:08;5.87;;;3.50;;
6251;SDS011;3159;52.414;9.784;2022-10-20T04:35:36;4.50;;;3.17;;
6251;SDS011;3159;52.414;9.784;2022-10-20T04:38:03;7.03;;;3.67;;
6251;SDS011;3159;52.414;9.784;2022-10-20T04:40:30;5.30;;;3.73;;
6251;SDS011;3159;52.414;9.784;2022-10-20T04:42:57;4.53;;;3.53;;
6251;SDS011;3159;52.414;9.784;2022-10-20T04:45:24;4.63;;;3.27;;
6251;SDS011;3159;52.414;9.784;2022-10-20T04:47:53;5.57;;;3.73;;
6251;SDS011;3159;52.414;9.784;2022-10-20T04:50:20;4.17;;;3.40;;
6251;SDS011;3159;52.414;9.784;2022-10-20T04:52:46;4.93;;;3.80;;
6251;SDS011;3159;52.414;9.784;2022-10-20T04:55:14;6.00;;;4.30;;
6251;SDS011;3159;52.414;9.784;2022-10-20T04:57:41;4.17;;;3.00;;
6251;SDS011;3159;52.414;9.784;2022-10-20T05:00:08;4.93;;;3.00;;
6251;SDS011;3159;52.414;9.784;2022-10-20T05:02:36;6.50;;;3.27;;
6251;SDS011;3159;52.414;9.784;2022-10-20T05:05:04;7.47;;;3.80;;
6251;SDS011;3159;52.414;9.784;2022-10-20T05:07:32;5.30;;;3.00;;
6251;SDS011;3159;52.414;9.784;2022-10-20T05:09:58;5.27;;;3.20;;
6251;SDS011;3159;52.414;9.784;2022-10-20T05:12:25;5.33;;;3.30;;
6251;SDS011;3159;52.414;9.784;2022-10-20T05:14:52;4.63;;;3.10;;
6251;SDS011;3159;52.414;9.784;2022-10-20T05:17:19;6.63;;;3.10;;
6251;SDS011;3159;52.414;9.784;2022-10-20T05:19:46;3.90;;;2.97;;
6251;SDS011;3159;52.414;9.784;2022-10-20T05:22:14;3.90;;;2.83;;
6251;SDS011;3159;52.414;9.784;2022-10-20T05:24:41;4.80;;;3.30;;
6251;SDS011;3159;52.414;9.784;2022-10-20T05:27:08;4.13;;;2.60;;
6251;SDS011;3159;52.414;9.784;2022-10-20T05:29:34;4.00;;;2.67;;
6251;SDS011;3159;52.414;9.784;2022-10-20T05:32:01;4.07;;;3.20;;
6251;SDS011;3159;52.414;9.784;2022-10-20T05:34:28;4.93;;;2.83;;
6251;SDS011;3159;52.414;9.784;2022-10-20T05:36:55;4.27;;;2.63;;
6251;SDS011;3159;52.414;9.784;2022-10-20T05:39:23;5.40;;;3.17;;
6251;SDS011;3159;52.414;9.784;2022-10-20T05:41:50;3.13;;;2.67;;
6251;SDS011;3159;52.414;9.784;2022-10-20T05:44:17;4.13;;;3.10;;
6251;SDS011;3159;52.414;9.784;2022-10-20T05:46:44;5.97;;;3.00;;
6251;SDS011;3159;52.414;9.784;2022-10-20T05:49:11;3.83;;;3.17;;
6251;SDS011;3159;52.414;9.784;2022-10-20T05:51:40;4.73;;;3.00;;
6251;SDS011;3159;52.414;9.784;2022-10-20T05:54:08;3.43;;;2.80;;
6251;SDS011;3159;52.414;9.784;2022-10-20T05:56:38;5.10;;;3.10;;
6251;SDS011;3159;52.414;9.784;2022-10-20T05:59:05;5.37;;;3.10;;
6251;SDS011;3159;52.414;9.784;2022-10-20T06:01:32;8.67;;;3.90;;
6251;SDS011;3159;52.414;9.784;2022-10-20T06:04:11;4.53;;;3.60;;
6251;SDS011;3159;52.414;9.784;2022-10-20T06:06:39;5.27;;;3.47;;
6251;SDS011;3159;52.414;9.784;2022-10-20T06:09:06;4.70;;;3.67;;
6251;SDS011;3159;52.414;9.784;2022-10-20T06:11:33;8.03;;;3.63;;
6251;SDS011;3159;52.414;9.784;2022-10-20T06:14:02;7.03;;;3.53;;
6251;SDS011;3159;52.414;9.784;2022-10-20T06:16:29;6.10;;;3.63;;
6251;SDS011;3159;52.414;9.784;2022-10-20T06:18:56;5.53;;;4.40;;
6251;SDS011;3159;52.414;9.784;2022-10-20T06:21:24;9.00;;;4.30;;
6251;SDS011;3159;52.414;9.784;2022-10-20T06:23:52;4.70;;;4.20;;
6251;SDS011;3159;52.414;9.784;2022-10-20T06:26:20;5.43;;;4.07;;
6251;SDS011;3159;52.414;9.784;2022-10-20T06:28:48;7.07;;;4.67;;
6251;SDS011;3159;52.414;9.784;2022-10-20T06:31:18;7.13;;;4.40;;
6251;SDS011;3159;52.414;9.784;2022-10-20T06:33:46;6.67;;;4.17;;
6251;SDS011;3159;52.414;9.784;2022-10-20T06:36:14;7.53;;;4.70;;
6251;SDS011;3159;52.414;9.784;2022-10-20T06:38:42;9.97;;;4.60;;
6251;SDS011;3159;52.414;9.784;2022-10-20T06:41:10;7.60;;;4.30;;
6251;SDS011;3159;52.414;9.784;2022-10-20T06:43:38;5.77;;;4.17;;
6251;SDS011;3159;52.414;9.784;2022-10-20T06:46:05;7.33;;;5.07;;
6251;SDS011;3159;52.414;9.784;2022-10-20T06:48:34;6.00;;;4.37;;
6251;SDS011;3159;52.414;9.784;2022-10-20T06:51:02;5.70;;;4.63;;
6251;SDS011;3159;52.414;9.784;2022-10-20T06:53:30;5.60;;;4.83;;
6251;SDS011;3159;52.414;9.784;2022-10-20T06:55:59;5.83;;;4.50;;
6251;SDS011;3159;52.414;9.784;2022-10-20T06:58:27;6.93;;;5.20;;
6251;SDS011;3159;52.414;9.784;2022-10-20T07:00:58;7.43;;;5.17;;
6251;SDS011;3159;52.414;9.784;2022-10-20T07:03:25;7.83;;;5.50;;
6251;SDS011;3159;52.414;9.784;2022-10-20T07:05:54;7.87;;;5.20;;
6251;SDS011;3159;52.414;9.784;2022-10-20T07:08:21;7.07;;;5.50;;
6251;SDS011;3159;52.414;9.784;2022-10-20T07:10:56;6.00;;;5.30;;
6251;SDS011;3159;52.414;9.784;2022-10-20T07:13:24;6.80;;;5.60;;
6251;SDS011;3159;52.414;9.784;2022-10-20T07:15:51;9.03;;;5.90;;
6251;SDS011;3159;52.414;9.784;2022-10-20T07:18:19;6.83;;;5.70;;
6251;SDS011;3159;52.414;9.784;2022-10-20T07:20:46;6.77;;;5.53;;
6251;SDS011;3159;52.414;9.784;2022-10-20T07:23:14;8.03;;;5.53;;
6251;SDS011;3159;52.414;9.784;2022-10-20T07:25:41;7.67;;;5.90;;
6251;SDS011;3159;52.414;9.784;2022-10-20T07:28:08;12.80;;;6.63;;
6251;SDS011;3159;52.414;9.784;2022-10-20T07:30:36;7.80;;;5.70;;
6251;SDS011;3159;52.414;9.784;2022-10-20T07:33:04;9.93;;;6.43;;
6251;SDS011;3159;52.414;9.784;2022-10-20T07:35:31;8.63;;;6.37;;
6251;SDS011;3159;52.414;9.784;2022-10-20T07:37:58;10.33;;;6.53;;
6251;SDS011;3159;52.414;9.784;2022-10-20T07:40:26;8.87;;;6.83;;
6251;SDS011;3159;52.414;9.784;2022-10-20T07:42:53;9.57;;;6.80;;
6251;SDS011;3159;52.414;9.784;2022-10-20T07:45:20;8.00;;;6.10;;
6251;SDS011;3159;52.414;9.784;2022-10-20T07:47:47;11.10;;;6.50;;
6251;SDS011;3159;52.414;9.784;2022-10-20T07:50:13;9.30;;;6.97;;
6251;SDS011;3159;52.414;9.784;2022-10-20T07:52:40;9.57;;;7.17;;
6251;SDS011;3159;52.414;9.784;2022-10-20T07:55:07;9.33;;;7.17;;
6251;SDS011;3159;52.414;9.784;2022-10-20T07:57:35;8.50;;;6.57;;
6251;SDS011;3159;52.414;9.784;2022-10-20T08:00:02;12.00;;;6.50;;
6251;SDS011;3159;52.414;9.784;2022-10-20T08:02:30;8.90;;;6.30;;
6251;SDS011;3159;52.414;9.784;2022-10-20T08:04:57;9.13;;;6.53;;
6251;SDS011;3159;52.414;9.784;2022-10-20T08:07:23;9.23;;;7.00;;
6251;SDS011;3159;52.414;9.784;2022-10-20T08:09:50;11.23;;;6.90;;
6251;SDS011;3159;52.414;9.784;2022-10-20T08:12:17;8.77;;;6.80;;
6251;SDS011;3159;52.414;9.784;2022-10-20T08:14:45;11.17;;;6.57;;
6251;SDS011;3159;52.414;9.784;2022-10-20T08:17:12;6.97;;;6.27;;
6251;SDS011;3159;52.414;9.784;2022-10-20T08:19:39;7.77;;;6.53;;
6251;SDS011;3159;52.414;9.784;2022-10-20T08:22:06;6.43;;;5.73;;
6251;SDS011;3159;52.414;9.784;2022-10-20T08:24:32;7.27;;;6.40;;
6251;SDS011;3159;52.414;9.784;2022-10-20T08:26:59;9.27;;;6.30;;
6251;SDS011;3159;52.414;9.784;2022-10-20T08:29:26;7.33;;;5.67;;
6251;SDS011;3159;52.414;9.784;2022-10-20T08:31:54;7.43;;;6.63;;
6251;SDS011;3159;52.414;9.784;2022-10-20T08:34:21;10.27;;;6.30;;
6251;SDS011;3159;52.414;9.784;2022-10-20T08:36:48;7.53;;;6.10;;
6251;SDS011;3159;52.414;9.784;2022-10-20T08:39:15;8.87;;;6.23;;
6251;SDS011;3159;52.414;9.784;2022-10-20T08:41:42;7.07;;;6.13;;
6251;SDS011;3159;52.414;9.784;2022-10-20T08:44:11;8.00;;;6.30;;
6251;SDS011;3159;52.414;9.784;2022-10-20T08:46:44;7.03;;;6.13;;
6251;SDS011;3159;52.414;9.784;2022-10-20T08:49:16;6.90;;;6.23;;
6251;SDS011;3159;52.414;9.784;2022-10-20T08:51:47;8.17;;;6.60;;
6251;SDS011;3159;52.414;9.784;2022-10-20T08:54:14;7.97;;;5.97;;
6251;SDS011;3159;52.414;9.784;2022-10-20T08:56:42;6.97;;;5.57;;
6251;SDS011;3159;52.414;9.784;2022-10-20T08:59:22;11.00;;;6.20;;
6251;SDS011;3159;52.414;9.784;2022-10-20T09:01:52;6.93;;;6.23;;
6251;SDS011;3159;52.414;9.784;2022-10-20T09:04:22;8.70;;;6.40;;
6251;SDS011;3159;52.414;9.784;2022-10-20T09:06:52;7.10;;;6.40;;
6251;SDS011;3159;52.414;9.784;2022-10-20T09:09:22;10.10;;;6.50;;
6251;SDS011;3159;52.414;9.784;2022-10-20T09:11:50;6.93;;;6.23;;
6251;SDS011;3159;52.414;9.784;2022-10-20T09:14:30;6.57;;;5.70;;
6251;SDS011;3159;52.414;9.784;2022-10-20T09:17:02;7.17;;;6.50;;
6251;SDS011;3159;52.414;9.784;2022-10-20T09:19:31;8.27;;;6.30;;
6251;SDS011;3159;52.414;9.784;2022-10-20T09:22:01;7.03;;;6.20;;
6251;SDS011;3159;52.414;9.784;2022-10-20T09:24:30;9.33;;;6.00;;
6251;SDS011;3159;52.414;9.784;2022-10-20T09:27:15;7.80;;;6.63;;
6251;SDS011;3159;52.414;9.784;2022-10-20T09:29:46;6.53;;;5.90;;
6251;SDS011;3159;52.414;9.784;2022-10-20T09:32:17;7.97;;;5.73;;
6251;SDS011;3159;52.414;9.784;2022-10-20T09:34:48;9.00;;;6.70;;
6251;SDS011;3159;52.414;9.784;2022-10-20T09:37:15;8.13;;;5.93;;
6251;SDS011;3159;52.414;9.784;2022-10-20T09:39:48;7.40;;;6.10;;
6251;SDS011;3159;52.414;9.784;2022-10-20T09:42:18;7.53;;;5.80;;
6251;SDS011;3159;52.414;9.784;2022-10-20T09:44:48;7.33;;;5.83;;
6251;SDS011;3159;52.414;9.784;2022-10-20T09:47:19;7.50;;;5.97;;
6251;SDS011;3159;52.414;9.784;2022-10-20T09:49:50;6.67;;;5.97;;
6251;SDS011;3159;52.414;9.784;2022-10-20T09:52:21;6.93;;;5.70;;
6251;SDS011;3159;52.414;9.784;2022-10-20T09:54:52;7.73;;;5.80;;
6251;SDS011;3159;52.414;9.784;2022-10-20T09:57:22;7.77;;;5.43;;
6251;SDS011;3159;52.414;9.784;2022-10-20T09:59:49;6.87;;;5.80;;
6251;SDS011;3159;52.414;9.784;2022-10-20T10:02:25;7.83;;;5.97;;
6251;SDS011;3159;52.414;9.784;2022-10-20T10:05:11;9.63;;;6.60;;
6251;SDS011;3159;52.414;9.784;2022-10-20T10:07:40;7.93;;;5.57;;
6251;SDS011;3159;52.414;9.784;2022-10-20T10:10:09;5.97;;;5.37;;
6251;SDS011;3159;52.414;9.784;2022-10-20T10:12:50;7.73;;;6.07;;
6251;SDS011;3159;52.414;9.784;2022-10-20T10:15:23;6.30;;;5.70;;
6251;SDS011;3159;52.414;9.784;2022-10-20T10:17:52;8.97;;;5.93;;
6251;SDS011;3159;52.414;9.784;2022-10-20T10:20:27;7.87;;;6.13;;
6251;SDS011;3159;52.414;9.784;2022-10-20T10:25:56;6.73;;;6.03;;
6251;SDS011;3159;52.414;9.784;2022-10-20T10:28:30;8.97;;;6.33;;
6251;SDS011;3159;52.414;9.784;2022-10-20T10:31:17;5.83;;;5.27;;
6251;SDS011;3159;52.414;9.784;2022-10-20T10:33:46;6.83;;;6.13;;
6251;SDS011;3159;52.414;9.784;2022-10-20T10:36:20;6.57;;;5.60;;
6251;SDS011;3159;52.414;9.784;2022-10-20T10:38:57;8.33;;;6.20;;
6251;SDS011;3159;52.414;9.784;2022-10-20T10:41:32;7.80;;;6.20;;
6251;SDS011;3159;52.414;9.784;2022-10-20T10:44:09;9.13;;;6.53;;
6251;SDS011;3159;52.414;9.784;2022-10-20T10:46:43;12.97;;;5.90;;
6251;SDS011;3159;52.414;9.784;2022-10-20T10:49:29;8.50;;;6.03;;
6251;SDS011;3159;52.414;9.784;2022-10-20T10:52:23;7.23;;;5.90;;
6251;SDS011;3159;52.414;9.784;2022-10-20T10:55:07;7.90;;;6.10;;
6251;SDS011;3159;52.414;9.784;2022-10-20T10:57:44;10.90;;;6.33;;
6251;SDS011;3159;52.414;9.784;2022-10-20T11:00:20;10.60;;;6.70;;
6251;SDS011;3159;52.414;9.784;2022-10-20T11:03:00;9.20;;;6.77;;
6251;SDS011;3159;52.414;9.784;2022-10-20T11:08:42;10.77;;;6.60;;
6251;SDS011;3159;52.414;9.784;2022-10-20T11:11:21;9.43;;;6.87;;
6251;SDS011;3159;52.414;9.784;2022-10-20T11:14:02;7.93;;;6.90;;
6251;SDS011;3159;52.414;9.784;2022-10-20T11:16:40;7.17;;;6.40;;
6251;SDS011;3159;52.414;9.784;2022-10-20T11:19:20;8.37;;;6.93;;
6251;SDS011;3159;52.414;9.784;2022-10-20T11:22:01;10.93;;;7.30;;
6251;SDS011;3159;52.414;9.784;2022-10-20T11:24:46;8.30;;;6.33;;
6251;SDS011;3159;52.414;9.784;2022-10-20T11:27:21;9.43;;;6.57;;
6251;SDS011;3159;52.414;9.784;2022-10-20T11:29:51;8.57;;;6.80;;
6251;SDS011;3159;52.414;9.784;2022-10-20T11:32:29;11.00;;;7.80;;
6251;SDS011;3159;52.414;9.784;2022-10-20T11:35:02;9.17;;;7.47;;
6251;SDS011;3159;52.414;9.784;2022-10-20T11:37:34;10.67;;;7.10;;
6251;SDS011;3159;52.414;9.784;2022-10-20T11:40:13;14.90;;;7.87;;
6251;SDS011;3159;52.414;9.784;2022-10-20T11:42:46;12.37;;;6.83;;
6251;SDS011;3159;52.414;9.784;2022-10-20T11:45:28;8.17;;;7.37;;
6251;SDS011;3159;52.414;9.784;2022-10-20T11:48:00;9.13;;;6.57;;
6251;SDS011;3159;52.414;9.784;2022-10-20T11:50:35;9.37;;;6.87;;
6251;SDS011;3159;52.414;9.784;2022-10-20T11:53:06;9.70;;;7.20;;
6251;SDS011;3159;52.414;9.784;2022-10-20T11:55:49;8.67;;;7.53;;
6251;SDS011;3159;52.414;9.784;2022-10-20T11:58:51;13.37;;;7.27;;
6251;SDS011;3159;52.414;9.784;2022-10-20T12:01:55;7.97;;;7.13;;
6251;SDS011;3159;52.414;9.784;2022-10-20T12:04:43;10.70;;;7.60;;
6251;SDS011;3159;52.414;9.784;2022-10-20T12:07:36;8.27;;;7.17;;
6251;SDS011;3159;52.414;9.784;2022-10-20T12:13:05;8.93;;;7.20;;
6251;SDS011;3159;52.414;9.784;2022-10-20T12:15:44;9.97;;;7.80;;
6251;SDS011;3159;52.414;9.784;2022-10-20T12:18:17;8.10;;;6.83;;
6251;SDS011;3159;52.414;9.784;2022-10-20T12:20:51;9.50;;;7.20;;
6251;SDS011;3159;52.414;9.784;2022-10-20T12:26:35;11.80;;;7.23;;
6251;SDS011;3159;52.414;9.784;2022-10-20T12:32:43;11.07;;;7.47;;
6251;SDS011;3159;52.414;9.784;2022-10-20T12:38:24;10.27;;;7.57;;
6251;SDS011;3159;52.414;9.784;2022-10-20T12:40:52;9.63;;;6.93;;
6251;SDS011;3159;52.414;9.784;2022-10-20T12:43:26;11.67;;;7.63;;
6251;SDS011;3159;52.414;9.784;2022-10-20T12:46:09;11.03;;;7.00;;
6251;SDS011;3159;52.414;9.784;2022-10-20T12:48:44;10.50;;;7.23;;
6251;SDS011;3159;52.414;9.784;2022-10-20T12:51:17;8.73;;;7.47;;
6251;SDS011;3159;52.414;9.784;2022-10-20T12:53:51;9.47;;;6.80;;
6251;SDS011;3159;52.414;9.784;2022-10-20T12:56:21;9.90;;;7.23;;
6251;SDS011;3159;52.414;9.784;2022-10-20T13:10:51;8.27;;;6.40;;
6251;SDS011;3159;52.414;9.784;2022-10-20T13:16:18;9.17;;;6.10;;
6251;SDS011;3159;52.414;9.784;2022-10-20T13:18:48;7.73;;;5.90;;
6251;SDS011;3159;52.414;9.784;2022-10-20T13:21:20;9.20;;;6.00;;
6251;SDS011;3159;52.414;9.784;2022-10-20T13:23:53;9.43;;;6.27;;
6251;SDS011;3159;52.414;9.784;2022-10-20T13:26:27;8.43;;;6.13;;
6251;SDS011;3159;52.414;9.784;2022-10-20T13:28:57;9.27;;;5.77;;
6251;SDS011;3159;52.414;9.784;2022-10-20T13:31:26;8.10;;;5.43;;
6251;SDS011;3159;52.414;9.784;2022-10-20T13:33:58;7.93;;;5.80;;
6251;SDS011;3159;52.414;9.784;2022-10-20T13:36:36;6.37;;;4.97;;
6251;SDS011;3159;52.414;9.784;2022-10-20T13:39:12;7.63;;;5.27;;
6251;SDS011;3159;52.414;9.784;2022-10-20T13:41:45;5.17;;;4.60;;
6251;SDS011;3159;52.414;9.784;2022-10-20T13:44:22;7.10;;;4.77;;
6251;SDS011;3159;52.414;9.784;2022-10-20T13:46:57;5.70;;;4.80;;
6251;SDS011;3159;52.414;9.784;2022-10-20T13:49:35;6.63;;;4.97;;
6251;SDS011;3159;52.414;9.784;2022-10-20T13:52:12;5.23;;;4.67;;
6251;SDS011;3159;52.414;9.784;2022-10-20T13:54:42;6.33;;;3.87;;
6251;SDS011;3159;52.414;9.784;2022-10-20T13:57:15;6.10;;;4.30;;
6251;SDS011;3159;52.414;9.784;2022-10-20T13:59:55;7.53;;;4.70;;
6251;SDS011;3159;52.414;9.784;2022-10-20T14:02:24;5.07;;;4.60;;
6251;SDS011;3159;52.414;9.784;2022-10-20T14:05:03;7.43;;;4.93;;
6251;SDS011;3159;52.414;9.784;2022-10-20T14:07:35;5.87;;;3.73;;
6251;SDS011;3159;52.414;9.784;2022-10-20T14:10:04;6.43;;;4.03;;
6251;SDS011;3159;52.414;9.784;2022-10-20T14:12:31;8.07;;;4.03;;
6251;SDS011;3159;52.414;9.784;2022-10-20T14:14:58;5.83;;;4.17;;
6251;SDS011;3159;52.414;9.784;2022-10-20T14:17:25;8.80;;;4.17;;
6251;SDS011;3159;52.414;9.784;2022-10-20T14:20:06;5.37;;;4.53;;
6251;SDS011;3159;52.414;9.784;2022-10-20T14:22:35;7.33;;;5.00;;
6251;SDS011;3159;52.414;9.784;2022-10-20T14:25:09;6.23;;;4.00;;
6251;SDS011;3159;52.414;9.784;2022-10-20T14:27:36;5.33;;;4.83;;
6251;SDS011;3159;52.414;9.784;2022-10-20T14:30:04;5.10;;;4.60;;
6251;SDS011;3159;52.414;9.784;2022-10-20T14:32:32;6.07;;;4.50;;
6251;SDS011;3159;52.414;9.784;2022-10-20T14:35:12;6.63;;;4.30;;
6251;SDS011;3159;52.414;9.784;2022-10-20T14:37:51;6.47;;;4.40;;
6251;SDS011;3159;52.414;9.784;2022-10-20T14:40:24;5.23;;;4.20;;
6251;SDS011;3159;52.414;9.784;2022-10-20T14:42:56;7.90;;;4.40;;
6251;SDS011;3159;52.414;9.784;2022-10-20T14:45:26;7.03;;;4.80;;
6251;SDS011;3159;52.414;9.784;2022-10-20T14:47:53;8.00;;;5.00;;
6251;SDS011;3159;52.414;9.784;2022-10-20T14:50:23;6.67;;;5.10;;
6251;SDS011;3159;52.414;9.784;2022-10-20T14:52:54;6.53;;;4.90;;
6251;SDS011;3159;52.414;9.784;2022-10-20T14:55:31;7.53;;;5.53;;
6251;SDS011;3159;52.414;9.784;2022-10-20T14:58:01;10.53;;;5.20;;
6251;SDS011;3159;52.414;9.784;2022-10-20T15:00:29;7.27;;;5.40;;
6251;SDS011;3159;52.414;9.784;2022-10-20T15:02:59;7.53;;;5.40;;
6251;SDS011;3159;52.414;9.784;2022-10-20T15:05:32;6.33;;;5.43;;
6251;SDS011;3159;52.414;9.784;2022-10-20T15:08:22;8.07;;;5.00;;
6251;SDS011;3159;52.414;9.784;2022-10-20T15:10:51;8.90;;;5.37;;
6251;SDS011;3159;52.414;9.784;2022-10-20T15:13:22;6.90;;;5.77;;
6251;SDS011;3159;52.414;9.784;2022-10-20T15:15:51;7.87;;;6.30;;
6251;SDS011;3159;52.414;9.784;2022-10-20T15:18:18;7.13;;;5.60;;
6251;SDS011;3159;52.414;9.784;2022-10-20T15:20:47;9.00;;;5.90;;
6251;SDS011;3159;52.414;9.784;2022-10-20T15:23:15;9.07;;;6.50;;
6251;SDS011;3159;52.414;9.784;2022-10-20T15:25:49;9.00;;;5.60;;
6251;SDS011;3159;52.414;9.784;2022-10-20T15:28:26;10.70;;;6.47;;
6251;SDS011;3159;52.414;9.784;2022-10-20T15:31:04;10.73;;;6.87;;
6251;SDS011;3159;52.414;9.784;2022-10-20T15:33:32;9.10;;;6.33;;
6251;SDS011;3159;52.414;9.784;2022-10-20T15:35:59;11.37;;;6.77;;
6251;SDS011;3159;52.414;9.784;2022-10-20T15:38:26;7.27;;;5.87;;
6251;SDS011;3159;52.414;9.784;2022-10-20T15:40:55;7.37;;;6.17;;
6251;SDS011;3159;52.414;9.784;2022-10-20T15:43:24;7.00;;;5.50;;
6251;SDS011;3159;52.414;9.784;2022-10-20T15:45:51;6.37;;;5.63;;
6251;SDS011;3159;52.414;9.784;2022-10-20T15:48:20;8.07;;;5.43;;
6251;SDS011;3159;52.414;9.784;2022-10-20T15:50:49;9.50;;;6.27;;
6251;SDS011;3159;52.414;9.784;2022-10-20T15:53:17;9.70;;;5.60;;
6251;SDS011;3159;52.414;9.784;2022-10-20T15:55:44;7.33;;;5.37;;
6251;SDS011;3159;52.414;9.784;2022-10-20T15:58:12;5.90;;;5.30;;
6251;SDS011;3159;52.414;9.784;2022-10-20T16:00:39;6.67;;;5.97;;
6251;SDS011;3159;52.414;9.784;2022-10-20T16:03:06;10.47;;;6.07;;
6251;SDS011;3159;52.414;9.784;2022-10-20T16:05:35;6.57;;;5.83;;
6251;SDS011;3159;52.414;9.784;2022-10-20T16:08:01;6.93;;;6.23;;
6251;SDS011;3159;52.414;9.784;2022-10-20T16:10:28;9.40;;;5.77;;
6251;SDS011;3159;52.414;9.784;2022-10-20T16:12:55;9.07;;;5.87;;
6251;SDS011;3159;52.414;9.784;2022-10-20T16:15:24;6.13;;;5.30;;